Terminal Aerodrome Forecast
Issued by NWS Cleveland, OH

Home | Current Version | Previous Version | Text Only | Print | Product List | Glossary Off
Versions: 1 2 3 4 5 6 7 8 9 10 11 12 13 14 15 16 17 18 19

000
FTUS41 KCLE 180500
TAFYNG
TAF
KYNG 180537Z 1806/1906 08004KT P6SM BKN050
     FM180900 08003KT 5SM BR BKN050
     FM181200 VRB03KT P6SM BKN250
     FM181400 06004KT P6SM SCT250
     FM181700 01006KT P6SM BKN250=

USA.gov is the U.S. government's official web portal to all federal, state and local government web resources and services.